Flight Track Log - Related Links

Times and Time Zones

All times are in EDT time to prevent confusion due to time zone crossing. See the UAL3773 flight status page for this flight to view local times or setup timezone preferences in your user account.

Time Position Orientation Groundspeed Altitude Reporting Facility
EDT Latitude Longitude Course Direction KTS MPH feet Rate Location/Type
Mon 04:07:56 PM 38.9167 -77.4667 207° Southwest 173 199 1,600  Level Potomac TRACON
Mon 04:08:56 PM 38.8667 -77.5000 207° Southwest 234 269 3,700 2,400 Climbing Potomac TRACON
Mon 04:09:56 PM 38.8000 -77.5667 218° Southwest 269 310 6,400 2,800 Climbing Potomac TRACON
Mon 04:10:56 PM 38.7667 -77.6500 243° Southwest 273 314 9,300 2,488 Climbing Potomac TRACON
Mon 04:11:18 PM 38.7681 -77.6764 274° West 274 315 9,800 659 Climbing Washington Center
Mon 04:12:18 PM 38.7767 -77.7886 276° West 323 372 10,200 1,150 Climbing Washington Center
Mon 04:13:18 PM 38.8011 -77.9197 283° West 349 402 12,100 1,900 Climbing Washington Center
Mon 04:14:18 PM 38.8236 -78.0483 283° West 355 409 14,000 2,050 Climbing Washington Center
Mon 04:15:18 PM 38.8483 -78.1719 284° West 355 409 16,200 2,350 Climbing Washington Center
Mon 04:16:18 PM 38.8539 -78.2919 273° West 350 403 18,700 2,050 Climbing Washington Center
Mon 04:17:18 PM 38.8533 -78.4092 270° West 345 397 20,300 1,600 Climbing Washington Center
Mon 04:18:18 PM 38.8503 -78.5344 268° West 345 397 21,900 1,550 Climbing Washington Center
Mon 04:19:18 PM 38.8514 -78.6625 271° West 350 403 23,400 1,350 Climbing Washington Center
Mon 04:20:18 PM 38.8481 -78.7903 268° West 360 414 24,600 1,200 Climbing Washington Center
Mon 04:21:18 PM 38.8464 -78.9208 269° West 366 421 25,800 1,350 Climbing Washington Center
Mon 04:22:18 PM 38.8447 -79.0539 269° West 366 421 27,300 1,050 Climbing Washington Center
Mon 04:23:18 PM 38.8428 -79.1900 269° West 371 427 27,900 800 Climbing Washington Center
Mon 04:24:18 PM 38.8428 -79.3283 270° West 384 442 28,900 950 Climbing Washington Center
Mon 04:25:18 PM 38.8383 -79.4669 268° West 384 442 29,800 900 Climbing Washington Center
Mon 04:26:18 PM 38.8364 -79.5972 269° West 396 456 30,700 950 Climbing Washington Center
Mon 04:27:18 PM 38.8314 -79.7383 267° West 402 463 31,700 750 Climbing Washington Center
Mon 04:28:18 PM 38.8286 -79.8794 269° West 402 463 32,200 950 Climbing Washington Center
Mon 04:29:18 PM 38.8228 -80.0364 267° West 402 463 33,600 1,365 Climbing Washington Center
Mon 04:31:05 PM 38.8175 -80.2575 268° West 360 414 36,000 852 Climbing Indianapolis Center
Mon 04:32:07 PM 38.8133 -80.3858 268° West 360 414 36,000  Level Indianapolis Center
Mon 04:33:09 PM 38.8094 -80.5203 268° West 375 432 36,000  Level Indianapolis Center
Mon 04:34:11 PM 38.8042 -80.6603 267° West 390 449 36,000  Level Indianapolis Center
Mon 04:35:13 PM 38.8003 -80.8006 268° West 393 452 36,000  Level Indianapolis Center
Mon 04:36:15 PM 38.7958 -80.9383 268° West 390 449 36,000  Level Indianapolis Center
Mon 04:37:17 PM 38.7900 -81.1047 267° West 390 449 36,000  Level Indianapolis Center
Mon 04:38:19 PM 38.7933 -81.2461 272° West 397 457 36,000  Level Indianapolis Center
Mon 04:39:21 PM 38.8111 -81.3867 279° West 403 464 36,000  Level Indianapolis Center
Mon 04:40:23 PM 38.8278 -81.5272 279° West 409 471 36,000  Level Indianapolis Center
Mon 04:41:25 PM 38.8456 -81.6683 279° West 409 471 36,000  Level Indianapolis Center
Mon 04:42:27 PM 38.8661 -81.8394 279° West 408 470 36,000  Level Indianapolis Center
Mon 04:43:29 PM 38.8836 -81.9850 279° West 412 474 36,000  Level Indianapolis Center
Mon 04:44:31 PM 38.9008 -82.1319 279° West 417 480 36,000  Level Indianapolis Center
Mon 04:45:32 PM 38.9181 -82.2778 279° West 414 476 36,000  Level Indianapolis Center
Mon 04:46:34 PM 38.9347 -82.4247 278° West 416 479 36,000  Level Indianapolis Center
Mon 04:47:36 PM 38.9511 -82.5728 278° West 418 481 36,000  Level Indianapolis Center
Mon 04:48:38 PM 38.9722 -82.7500 279° West 418 481 36,000  Level Indianapolis Center
Mon 04:49:40 PM 38.9892 -82.8972 278° West 416 479 36,000  Level Indianapolis Center
Mon 04:50:42 PM 39.0047 -83.0436 278° West 415 478 36,000  Level Indianapolis Center
Mon 04:51:44 PM 39.0217 -83.2014 278° West 414 476 36,000  Level Indianapolis Center
Mon 04:52:46 PM 39.0375 -83.3481 278° West 410 472 36,000  Level Indianapolis Center
Mon 04:53:47 PM 39.0531 -83.4947 278° West 409 471 36,000  Level Indianapolis Center
Mon 04:54:49 PM 39.0681 -83.6400 278° West 406 467 36,000  Level Indianapolis Center
Mon 04:55:51 PM 39.0839 -83.7864 278° West 407 468 36,000  Level Indianapolis Center
Mon 04:56:53 PM 39.0983 -83.9333 277° West 409 471 36,000  Level Indianapolis Center
Mon 04:57:55 PM 39.1133 -84.0797 278° West 409 471 36,000  Level Indianapolis Center
Mon 04:58:57 PM 39.1283 -84.2278 277° West 412 474 36,000  Level Indianapolis Center
Mon 04:59:59 PM 39.1422 -84.3744 277° West 410 472 36,000  Level Indianapolis Center
Mon 05:01:01 PM 39.1575 -84.5228 278° West 412 474 36,000  Level Indianapolis Center
Mon 05:02:03 PM 39.1736 -84.6961 277° West 412 474 36,000  Level Indianapolis Center
Mon 05:03:04 PM 39.1889 -84.8467 278° West 417 480 36,000  Level Indianapolis Center
Mon 05:04:06 PM 39.2017 -84.9950 276° West 414 476 36,000  Level Indianapolis Center
Mon 05:05:08 PM 39.2153 -85.1442 277° West 416 479 36,000  Level Indianapolis Center
Mon 05:06:10 PM 39.2303 -85.2939 277° West 418 481 36,000  Level Indianapolis Center
Mon 05:07:12 PM 39.2431 -85.4450 276° West 419 482 36,000  Level Indianapolis Center
Mon 05:08:14 PM 39.2567 -85.6017 276° West 420 483 36,000  Level Indianapolis Center
Mon 05:09:50 PM 39.2769 -85.8417 276° West 420 483 36,000  Level Kansas City Center
Mon 05:10:18 PM 39.2819 -85.9019 276° West 422 486 36,000  Level Indianapolis Center
Mon 05:11:20 PM 39.2950 -86.0536 276° West 424 488 36,000  Level Indianapolis Center
Mon 05:12:22 PM 39.3100 -86.2353 276° West 425 489 36,000  Level Indianapolis Center
Mon 05:13:24 PM 39.3233 -86.3872 277° West 425 489 36,000  Level Indianapolis Center
Mon 05:14:26 PM 39.3344 -86.5394 275° West 427 491 36,000  Level Indianapolis Center
Mon 05:15:27 PM 39.3472 -86.6914 276° West 427 491 36,000  Level Indianapolis Center
Mon 05:16:29 PM 39.3586 -86.8417 276° West 421 484 36,000  Level Indianapolis Center
Mon 05:17:31 PM 39.3706 -86.9942 276° West 426 490 36,000  Level Indianapolis Center
Mon 05:18:33 PM 39.3822 -87.1450 276° West 423 487 36,000  Level Indianapolis Center
Mon 05:19:35 PM 39.3947 -87.3239 275° West 418 481 36,000  Level Indianapolis Center
Mon 05:20:36 PM 39.4056 -87.4692 276° West 408 470 36,000  Level Indianapolis Center
Mon 05:21:38 PM 39.4156 -87.6139 275° West 405 466 36,000  Level Indianapolis Center
Mon 05:22:40 PM 39.4250 -87.7594 275° West 405 466 36,000  Level Indianapolis Center
Mon 05:23:42 PM 39.4356 -87.9014 276° West 401 461 36,000  Level Indianapolis Center
Mon 05:24:16 PM 39.4419 -87.9861 276° West 397 457 36,000  Level Kansas City Center
Mon 05:25:20 PM 39.4508 -88.1275 275° West 395 455 36,000  Level Kansas City Center
Mon 05:26:21 PM 39.4597 -88.2672 275° West 393 452 36,000  Level Kansas City Center
Mon 05:27:24 PM 39.4694 -88.4069 275° West 390 449 36,000  Level Kansas City Center
Mon 05:28:26 PM 39.4806 -88.5711 275° West 385 443 36,000  Level Kansas City Center
Mon 05:29:27 PM 39.4864 -88.7078 273° West 388 447 36,000  Level Kansas City Center
Mon 05:30:30 PM 39.4953 -88.8442 275° West 382 440 36,000  Level Kansas City Center
Mon 05:31:31 PM 39.5031 -88.9814 274° West 382 440 36,000  Level Kansas City Center
Mon 05:32:34 PM 39.5111 -89.1178 274° West 381 438 36,000  Level Kansas City Center
Mon 05:33:35 PM 39.5206 -89.2683 275° West 377 434 36,000  Level Kansas City Center
Mon 05:34:37 PM 39.5261 -89.4047 273° West 380 437 36,000  Level Kansas City Center
Mon 05:35:37 PM 39.5347 -89.5408 275° West 380 437 36,000  Level Kansas City Center
Mon 05:36:41 PM 39.5419 -89.6769 274° West 380 437 36,000  Level Kansas City Center
Mon 05:37:41 PM 39.5486 -89.8117 274° West 379 436 36,000  Level Kansas City Center
Mon 05:38:45 PM 39.5572 -89.9744 274° West 380 437 36,000  Level Kansas City Center
Mon 05:39:46 PM 39.5636 -90.1103 274° West 379 436 36,000  Level Kansas City Center
Mon 05:40:50 PM 39.5708 -90.2469 274° West 381 438 36,000  Level Kansas City Center
Mon 05:41:51 PM 39.5769 -90.3828 273° West 381 438 36,000  Level Kansas City Center
Mon 05:42:52 PM 39.5831 -90.5189 273° West 380 437 36,000  Level Kansas City Center
Mon 05:43:54 PM 39.5881 -90.6567 273° West 383 441 36,000  Level Kansas City Center
Mon 05:44:55 PM 39.5958 -90.8253 273° West 390 449 36,000  Level Kansas City Center
Mon 05:45:57 PM 39.6014 -90.9650 273° West 390 449 36,000  Level Kansas City Center
Mon 05:47:00 PM 39.6081 -91.1044 274° West 391 450 36,000  Level Kansas City Center
Mon 05:48:02 PM 39.6131 -91.2444 273° West 391 450 36,000  Level Kansas City Center
Mon 05:49:03 PM 39.6175 -91.3942 272° West 395 455 36,000  Level Kansas City Center
Mon 05:50:06 PM 39.6239 -91.5353 273° West 395 455 36,000  Level Kansas City Center
Mon 05:51:07 PM 39.6292 -91.6769 273° West 395 455 36,000  Level Kansas City Center
Mon 05:52:10 PM 39.6342 -91.8458 272° West 394 453 36,000  Level Kansas City Center
Mon 05:53:11 PM 39.6397 -91.9842 273° West 390 449 36,000  Level Kansas City Center
Mon 05:54:14 PM 39.6428 -92.1247 272° West 390 449 36,000  Level Kansas City Center
Mon 05:55:15 PM 39.6475 -92.2631 273° West 389 448 36,000  Level Kansas City Center
Mon 05:56:15 PM 39.6525 -92.4000 273° West 386 444 36,000 -816 Level Kansas City Center
Mon 05:57:20 PM 39.6550 -92.5378 271° West 384 442 34,300 -2,160 Descending Kansas City Center
Mon 05:58:20 PM 39.6528 -92.7000 269° West 381 438 31,500 -2,479 Descending Kansas City Center
Mon 05:59:21 PM 39.6500 -92.8317 268° West 375 432 29,300 -2,112 Descending Kansas City Center
Mon 06:00:25 PM 39.6481 -92.9689 269° West 375 432 27,100 -2,208 Descending Kansas City Center
Mon 06:01:26 PM 39.6456 -93.1103 269° West 386 444 24,700 -2,323 Descending Kansas City Center
Mon 06:02:29 PM 39.6431 -93.2514 269° West 393 452 22,300 -2,323 Descending Kansas City Center
Mon 06:03:30 PM 39.6414 -93.3861 269° West 381 438 19,900 -2,628 Descending Kansas City Center
Mon 06:04:30 PM 39.6375 -93.5422 268° West 369 425 17,000 -2,468 Descending Kansas City Center
Mon 06:05:34 PM 39.6358 -93.6678 269° West 353 406 14,800 -1,968 Descending Kansas City Center
Mon 06:06:35 PM 39.6331 -93.7933 268° West 327 376 12,900 -1,623 Descending Kansas City Center
Mon 06:07:36 PM 39.6253 -93.8897 264° West 288 331 11,500 -1,392 Descending Kansas City Center
Mon 06:08:40 PM 39.5817 -93.9731 236° Southwest 250 288 10,000 -1,296 Descending Kansas City Center
Mon 06:09:41 PM 39.5450 -94.0456 237° Southwest 252 290 8,800 -1,296 Descending Kansas City Center
Mon 06:10:45 PM 39.5253 -94.1442 255° West 265 305 7,300 -1,306 Descending Kansas City Center
Mon 06:11:45 PM 39.5178 -94.2414 264° West 285 328 6,100 -629 Descending Kansas City Center
Mon 06:12:49 PM 39.5106 -94.3303 264° West 261 300 6,000 -97 Descending Kansas City Center
Mon 06:13:49 PM 39.4992 -94.4322 262° West 259 298 5,900 -744 Descending Kansas City Center
Mon 06:14:50 PM 39.4906 -94.5211 263° West 261 300 4,500 -1,104 Descending Kansas City Center
Mon 06:15:54 PM 39.4811 -94.6178 263° West 240 276 3,600 -912 Descending Kansas City Center
Mon 06:16:55 PM 39.4528 -94.6675 234° Southwest 182 209 2,600 -480 Descending Kansas City Center
Mon 06:17:59 PM 39.4075 -94.6972 207° Southwest 167 192 2,600 -290 Level Kansas City Center
Mon 06:18:59 PM 39.3706 -94.7064 191° South 144 166 2,000 -700 Descending Kansas City Center
Mon 06:19:59 PM 39.3306 -94.7189 194° South 134 154 1,200 -484 Descending Kansas City Center
Mon 06:21:03 PM 39.3031 -94.7258 191° South 90 104 1,000 -188 Descending Kansas City Center

Login

Don't have an account? Register now (free) for customized features, flight alerts, and more!